About Me

My photo

Anything outdoors!  Tornadoes, eagles, blizzards, or auroras.  If it is in the sky, running through the woods or swimming in the water, I'm there!

Followers

Saturday, December 22, 2007

The annual Christmas dog pic and thunder last night?



Well that was interesting overnight. Tadd Parris who is one of the weather observers at MSP grabbed this image. Interesting. Here is his TAF report:

KMSP 220955Z 11003KT 2SM TSRA BR OVC002CB 01/01 A2980 RMK AO2 TSB55 OCNL LTGIC SW TS SW MOV N P0001

And onto the annual dog portrait. Kids had a heck of a time getting ding dong to hold still. There was no way he was going to sit and hold still so Buck was laying down on the job this year.

1 comment:

Post a Comment